sensor_id;sensor_type;location;lat;lon;timestamp;P1;durP1;ratioP1;P2;durP2;ratioP2
359;SDS011;168;48.872;9.226;2023-10-31T00:00:18;1.53;;;0.60;;
359;SDS011;168;48.872;9.226;2023-10-31T00:02:45;1.93;;;0.80;;
359;SDS011;168;48.872;9.226;2023-10-31T00:05:13;2.17;;;0.70;;
359;SDS011;168;48.872;9.226;2023-10-31T00:07:41;2.07;;;1.27;;
359;SDS011;168;48.872;9.226;2023-10-31T00:10:09;1.40;;;0.70;;
359;SDS011;168;48.872;9.226;2023-10-31T00:12:36;1.30;;;0.80;;
359;SDS011;168;48.872;9.226;2023-10-31T00:15:05;1.63;;;0.77;;
359;SDS011;168;48.872;9.226;2023-10-31T00:17:33;2.30;;;0.90;;
359;SDS011;168;48.872;9.226;2023-10-31T00:20:00;1.90;;;1.00;;
359;SDS011;168;48.872;9.226;2023-10-31T00:22:27;3.13;;;0.90;;
359;SDS011;168;48.872;9.226;2023-10-31T00:24:56;1.50;;;0.80;;
359;SDS011;168;48.872;9.226;2023-10-31T00:27:23;1.80;;;0.80;;
359;SDS011;168;48.872;9.226;2023-10-31T00:29:50;1.40;;;0.90;;
359;SDS011;168;48.872;9.226;2023-10-31T00:32:18;1.77;;;0.80;;
359;SDS011;168;48.872;9.226;2023-10-31T00:34:45;3.00;;;0.70;;
359;SDS011;168;48.872;9.226;2023-10-31T00:37:12;1.60;;;0.80;;
359;SDS011;168;48.872;9.226;2023-10-31T00:39:40;1.20;;;0.60;;
359;SDS011;168;48.872;9.226;2023-10-31T00:42:08;2.03;;;0.70;;
359;SDS011;168;48.872;9.226;2023-10-31T00:44:36;1.40;;;0.70;;
359;SDS011;168;48.872;9.226;2023-10-31T00:47:03;1.40;;;0.60;;
359;SDS011;168;48.872;9.226;2023-10-31T00:49:30;4.10;;;0.80;;
359;SDS011;168;48.872;9.226;2023-10-31T00:51:58;1.37;;;0.60;;
359;SDS011;168;48.872;9.226;2023-10-31T00:54:25;1.40;;;0.60;;
359;SDS011;168;48.872;9.226;2023-10-31T00:56:52;1.20;;;0.50;;
359;SDS011;168;48.872;9.226;2023-10-31T00:59:21;1.50;;;0.70;;
359;SDS011;168;48.872;9.226;2023-10-31T01:01:49;1.33;;;0.67;;
359;SDS011;168;48.872;9.226;2023-10-31T01:04:16;1.57;;;0.77;;
359;SDS011;168;48.872;9.226;2023-10-31T01:06:44;1.50;;;0.70;;
359;SDS011;168;48.872;9.226;2023-10-31T01:09:11;1.60;;;0.83;;
359;SDS011;168;48.872;9.226;2023-10-31T01:11:38;1.40;;;0.70;;
359;SDS011;168;48.872;9.226;2023-10-31T01:14:06;2.20;;;0.50;;
359;SDS011;168;48.872;9.226;2023-10-31T01:16:34;1.93;;;0.70;;
359;SDS011;168;48.872;9.226;2023-10-31T01:19:02;1.30;;;0.60;;
359;SDS011;168;48.872;9.226;2023-10-31T01:21:29;2.47;;;0.70;;
359;SDS011;168;48.872;9.226;2023-10-31T01:23:57;1.80;;;0.60;;
359;SDS011;168;48.872;9.226;2023-10-31T01:26:25;2.87;;;0.80;;
359;SDS011;168;48.872;9.226;2023-10-31T01:28:52;1.43;;;0.67;;
359;SDS011;168;48.872;9.226;2023-10-31T01:31:20;2.40;;;0.70;;
359;SDS011;168;48.872;9.226;2023-10-31T01:33:49;2.27;;;0.70;;
359;SDS011;168;48.872;9.226;2023-10-31T01:36:19;3.23;;;0.80;;
359;SDS011;168;48.872;9.226;2023-10-31T01:38:50;1.30;;;0.57;;
359;SDS011;168;48.872;9.226;2023-10-31T01:41:26;1.67;;;0.87;;
359;SDS011;168;48.872;9.226;2023-10-31T01:51:16;1.40;;;0.70;;
359;SDS011;168;48.872;9.226;2023-10-31T01:53:59;1.30;;;0.70;;
359;SDS011;168;48.872;9.226;2023-10-31T01:56:36;1.50;;;0.70;;
359;SDS011;168;48.872;9.226;2023-10-31T01:59:04;1.90;;;0.70;;
359;SDS011;168;48.872;9.226;2023-10-31T02:01:32;5.63;;;0.80;;
359;SDS011;168;48.872;9.226;2023-10-31T02:04:02;1.60;;;0.70;;
359;SDS011;168;48.872;9.226;2023-10-31T02:06:32;2.83;;;1.00;;
359;SDS011;168;48.872;9.226;2023-10-31T02:08:59;1.57;;;0.77;;
359;SDS011;168;48.872;9.226;2023-10-31T02:11:27;1.77;;;0.80;;
359;SDS011;168;48.872;9.226;2023-10-31T02:13:54;1.97;;;0.70;;
359;SDS011;168;48.872;9.226;2023-10-31T02:16:22;1.77;;;1.00;;
359;SDS011;168;48.872;9.226;2023-10-31T02:18:51;2.80;;;0.83;;
359;SDS011;168;48.872;9.226;2023-10-31T02:21:19;1.80;;;0.90;;
359;SDS011;168;48.872;9.226;2023-10-31T02:23:56;2.20;;;0.77;;
359;SDS011;168;48.872;9.226;2023-10-31T02:26:27;1.60;;;0.90;;
359;SDS011;168;48.872;9.226;2023-10-31T02:28:55;1.53;;;0.70;;
359;SDS011;168;48.872;9.226;2023-10-31T02:31:22;2.13;;;0.80;;
359;SDS011;168;48.872;9.226;2023-10-31T02:33:50;2.33;;;0.90;;
359;SDS011;168;48.872;9.226;2023-10-31T02:36:17;2.27;;;0.90;;
359;SDS011;168;48.872;9.226;2023-10-31T02:38:45;2.20;;;0.87;;
359;SDS011;168;48.872;9.226;2023-10-31T02:41:14;3.40;;;0.70;;
359;SDS011;168;48.872;9.226;2023-10-31T02:43:42;2.27;;;0.90;;
359;SDS011;168;48.872;9.226;2023-10-31T02:46:09;2.33;;;0.90;;
359;SDS011;168;48.872;9.226;2023-10-31T02:48:37;2.93;;;1.10;;
359;SDS011;168;48.872;9.226;2023-10-31T02:51:05;2.17;;;0.80;;
359;SDS011;168;48.872;9.226;2023-10-31T02:53:33;1.80;;;0.77;;
359;SDS011;168;48.872;9.226;2023-10-31T02:56:01;2.53;;;1.00;;
359;SDS011;168;48.872;9.226;2023-10-31T02:58:30;1.80;;;1.00;;
359;SDS011;168;48.872;9.226;2023-10-31T03:00:57;3.13;;;0.90;;
359;SDS011;168;48.872;9.226;2023-10-31T03:03:25;2.70;;;0.90;;
359;SDS011;168;48.872;9.226;2023-10-31T03:05:52;2.03;;;0.90;;
359;SDS011;168;48.872;9.226;2023-10-31T03:08:19;1.60;;;0.73;;
359;SDS011;168;48.872;9.226;2023-10-31T03:10:47;1.73;;;1.03;;
359;SDS011;168;48.872;9.226;2023-10-31T03:13:16;2.23;;;1.00;;
359;SDS011;168;48.872;9.226;2023-10-31T03:15:45;1.43;;;0.80;;
359;SDS011;168;48.872;9.226;2023-10-31T03:18:13;2.13;;;0.90;;
359;SDS011;168;48.872;9.226;2023-10-31T03:20:43;2.10;;;0.90;;
359;SDS011;168;48.872;9.226;2023-10-31T03:23:11;1.60;;;0.73;;
359;SDS011;168;48.872;9.226;2023-10-31T03:25:39;1.50;;;0.80;;
359;SDS011;168;48.872;9.226;2023-10-31T03:30:47;1.90;;;1.00;;
359;SDS011;168;48.872;9.226;2023-10-31T03:33:14;2.10;;;1.03;;
359;SDS011;168;48.872;9.226;2023-10-31T03:38:11;3.27;;;1.00;;
359;SDS011;168;48.872;9.226;2023-10-31T03:40:38;2.07;;;0.90;;
359;SDS011;168;48.872;9.226;2023-10-31T03:43:06;1.70;;;0.90;;
359;SDS011;168;48.872;9.226;2023-10-31T03:45:33;1.53;;;0.97;;
359;SDS011;168;48.872;9.226;2023-10-31T03:48:02;2.30;;;0.90;;
359;SDS011;168;48.872;9.226;2023-10-31T03:50:30;1.90;;;1.10;;
359;SDS011;168;48.872;9.226;2023-10-31T03:52:57;2.53;;;1.20;;
359;SDS011;168;48.872;9.226;2023-10-31T03:55:24;2.30;;;1.30;;
359;SDS011;168;48.872;9.226;2023-10-31T03:57:52;1.73;;;1.00;;
359;SDS011;168;48.872;9.226;2023-10-31T04:00:19;1.57;;;0.80;;
359;SDS011;168;48.872;9.226;2023-10-31T04:02:46;2.30;;;1.10;;
359;SDS011;168;48.872;9.226;2023-10-31T04:05:15;2.00;;;0.90;;
359;SDS011;168;48.872;9.226;2023-10-31T04:07:43;2.33;;;1.13;;
359;SDS011;168;48.872;9.226;2023-10-31T04:10:10;1.80;;;0.70;;
359;SDS011;168;48.872;9.226;2023-10-31T04:12:38;1.50;;;0.70;;
359;SDS011;168;48.872;9.226;2023-10-31T04:15:06;2.13;;;0.70;;
359;SDS011;168;48.872;9.226;2023-10-31T04:17:34;2.97;;;0.73;;
359;SDS011;168;48.872;9.226;2023-10-31T04:20:01;1.77;;;0.60;;
359;SDS011;168;48.872;9.226;2023-10-31T04:22:30;2.33;;;0.90;;
359;SDS011;168;48.872;9.226;2023-10-31T04:24:57;2.17;;;0.93;;
359;SDS011;168;48.872;9.226;2023-10-31T04:27:25;2.80;;;0.90;;
359;SDS011;168;48.872;9.226;2023-10-31T04:29:52;3.73;;;1.10;;
359;SDS011;168;48.872;9.226;2023-10-31T04:32:19;6.00;;;1.73;;
359;SDS011;168;48.872;9.226;2023-10-31T04:34:47;1.97;;;0.87;;
359;SDS011;168;48.872;9.226;2023-10-31T04:37:14;1.40;;;0.67;;
359;SDS011;168;48.872;9.226;2023-10-31T04:39:43;1.70;;;0.97;;
359;SDS011;168;48.872;9.226;2023-10-31T04:42:10;1.53;;;0.67;;
359;SDS011;168;48.872;9.226;2023-10-31T04:44:37;2.27;;;0.80;;
359;SDS011;168;48.872;9.226;2023-10-31T04:47:05;1.50;;;0.80;;
359;SDS011;168;48.872;9.226;2023-10-31T04:49:34;2.57;;;0.90;;
359;SDS011;168;48.872;9.226;2023-10-31T04:52:02;6.40;;;1.17;;
359;SDS011;168;48.872;9.226;2023-10-31T04:54:30;2.40;;;0.80;;
359;SDS011;168;48.872;9.226;2023-10-31T04:56:58;1.50;;;0.80;;
359;SDS011;168;48.872;9.226;2023-10-31T04:59:26;2.33;;;0.90;;
359;SDS011;168;48.872;9.226;2023-10-31T05:01:53;2.00;;;0.80;;
359;SDS011;168;48.872;9.226;2023-10-31T05:04:21;2.07;;;0.80;;
359;SDS011;168;48.872;9.226;2023-10-31T05:06:48;1.60;;;0.80;;
359;SDS011;168;48.872;9.226;2023-10-31T05:09:15;1.57;;;0.77;;
359;SDS011;168;48.872;9.226;2023-10-31T05:11:43;1.60;;;1.07;;
359;SDS011;168;48.872;9.226;2023-10-31T05:14:12;1.30;;;0.67;;
359;SDS011;168;48.872;9.226;2023-10-31T05:16:40;1.60;;;0.70;;
359;SDS011;168;48.872;9.226;2023-10-31T05:19:08;1.93;;;0.70;;
359;SDS011;168;48.872;9.226;2023-10-31T05:21:35;2.10;;;0.63;;
359;SDS011;168;48.872;9.226;2023-10-31T05:24:03;1.40;;;0.80;;
359;SDS011;168;48.872;9.226;2023-10-31T05:26:31;2.63;;;0.70;;
359;SDS011;168;48.872;9.226;2023-10-31T05:28:58;2.77;;;1.00;;
359;SDS011;168;48.872;9.226;2023-10-31T05:31:27;2.53;;;1.00;;
359;SDS011;168;48.872;9.226;2023-10-31T05:33:55;2.03;;;0.80;;
359;SDS011;168;48.872;9.226;2023-10-31T05:36:23;3.20;;;1.00;;
359;SDS011;168;48.872;9.226;2023-10-31T05:38:51;1.53;;;0.70;;
359;SDS011;168;48.872;9.226;2023-10-31T05:41:18;2.27;;;0.70;;
359;SDS011;168;48.872;9.226;2023-10-31T05:43:46;1.97;;;1.10;;
359;SDS011;168;48.872;9.226;2023-10-31T05:46:13;1.40;;;0.70;;
359;SDS011;168;48.872;9.226;2023-10-31T05:48:43;1.40;;;0.80;;
359;SDS011;168;48.872;9.226;2023-10-31T05:51:11;1.53;;;0.70;;
359;SDS011;168;48.872;9.226;2023-10-31T05:53:40;1.80;;;0.80;;
359;SDS011;168;48.872;9.226;2023-10-31T05:56:09;1.70;;;0.80;;
359;SDS011;168;48.872;9.226;2023-10-31T05:58:37;1.43;;;0.80;;
359;SDS011;168;48.872;9.226;2023-10-31T06:01:05;2.30;;;0.90;;
359;SDS011;168;48.872;9.226;2023-10-31T06:03:33;1.40;;;0.80;;
359;SDS011;168;48.872;9.226;2023-10-31T06:06:02;3.10;;;0.90;;
359;SDS011;168;48.872;9.226;2023-10-31T06:08:30;2.00;;;1.03;;
359;SDS011;168;48.872;9.226;2023-10-31T06:10:58;2.33;;;0.80;;
359;SDS011;168;48.872;9.226;2023-10-31T06:13:25;2.03;;;1.17;;
359;SDS011;168;48.872;9.226;2023-10-31T06:15:53;1.40;;;0.70;;
359;SDS011;168;48.872;9.226;2023-10-31T06:18:21;1.50;;;0.87;;
359;SDS011;168;48.872;9.226;2023-10-31T06:20:48;1.53;;;0.70;;
359;SDS011;168;48.872;9.226;2023-10-31T06:23:17;1.50;;;0.80;;
359;SDS011;168;48.872;9.226;2023-10-31T06:25:44;1.60;;;0.87;;
359;SDS011;168;48.872;9.226;2023-10-31T06:28:12;2.63;;;1.00;;
359;SDS011;168;48.872;9.226;2023-10-31T06:30:39;3.50;;;1.17;;
359;SDS011;168;48.872;9.226;2023-10-31T06:33:06;1.77;;;1.07;;
359;SDS011;168;48.872;9.226;2023-10-31T06:35:34;2.00;;;1.40;;
359;SDS011;168;48.872;9.226;2023-10-31T06:38:01;2.80;;;0.90;;
359;SDS011;168;48.872;9.226;2023-10-31T06:40:30;1.83;;;0.80;;
359;SDS011;168;48.872;9.226;2023-10-31T06:42:58;2.13;;;0.70;;
359;SDS011;168;48.872;9.226;2023-10-31T06:45:25;1.73;;;0.80;;
359;SDS011;168;48.872;9.226;2023-10-31T06:47:53;1.63;;;0.80;;
359;SDS011;168;48.872;9.226;2023-10-31T06:50:20;1.70;;;0.80;;
359;SDS011;168;48.872;9.226;2023-10-31T06:52:48;1.57;;;0.70;;
359;SDS011;168;48.872;9.226;2023-10-31T06:55:15;2.23;;;0.87;;
359;SDS011;168;48.872;9.226;2023-10-31T06:57:44;2.33;;;0.93;;
359;SDS011;168;48.872;9.226;2023-10-31T07:00:11;2.80;;;0.70;;
359;SDS011;168;48.872;9.226;2023-10-31T07:02:39;1.30;;;0.70;;
359;SDS011;168;48.872;9.226;2023-10-31T07:05:07;1.70;;;0.80;;
359;SDS011;168;48.872;9.226;2023-10-31T07:07:34;1.67;;;0.80;;
359;SDS011;168;48.872;9.226;2023-10-31T07:10:02;1.77;;;0.87;;
359;SDS011;168;48.872;9.226;2023-10-31T07:12:31;1.60;;;0.70;;
359;SDS011;168;48.872;9.226;2023-10-31T07:14:59;2.53;;;1.00;;
359;SDS011;168;48.872;9.226;2023-10-31T07:17:27;1.97;;;0.90;;
359;SDS011;168;48.872;9.226;2023-10-31T07:19:54;1.63;;;0.80;;
359;SDS011;168;48.872;9.226;2023-10-31T07:22:21;3.23;;;0.80;;
359;SDS011;168;48.872;9.226;2023-10-31T07:24:50;1.93;;;1.03;;
359;SDS011;168;48.872;9.226;2023-10-31T07:27:17;1.90;;;1.10;;
359;SDS011;168;48.872;9.226;2023-10-31T07:29:45;2.53;;;1.10;;
359;SDS011;168;48.872;9.226;2023-10-31T07:32:14;2.13;;;1.10;;
359;SDS011;168;48.872;9.226;2023-10-31T07:34:41;1.93;;;0.90;;
359;SDS011;168;48.872;9.226;2023-10-31T07:37:09;1.70;;;0.80;;
359;SDS011;168;48.872;9.226;2023-10-31T07:39:36;1.70;;;1.00;;
359;SDS011;168;48.872;9.226;2023-10-31T07:42:04;1.80;;;0.93;;
359;SDS011;168;48.872;9.226;2023-10-31T07:44:32;4.23;;;0.80;;
359;SDS011;168;48.872;9.226;2023-10-31T07:46:59;1.70;;;0.93;;
359;SDS011;168;48.872;9.226;2023-10-31T07:49:28;2.80;;;1.00;;
359;SDS011;168;48.872;9.226;2023-10-31T07:51:55;2.03;;;1.07;;
359;SDS011;168;48.872;9.226;2023-10-31T07:54:22;2.80;;;1.10;;
359;SDS011;168;48.872;9.226;2023-10-31T07:56:50;1.47;;;0.73;;
359;SDS011;168;48.872;9.226;2023-10-31T07:59:18;2.33;;;1.23;;
359;SDS011;168;48.872;9.226;2023-10-31T08:01:45;2.10;;;0.90;;
359;SDS011;168;48.872;9.226;2023-10-31T08:04:13;2.40;;;0.80;;
359;SDS011;168;48.872;9.226;2023-10-31T08:06:43;1.97;;;0.90;;
359;SDS011;168;48.872;9.226;2023-10-31T08:09:10;1.87;;;0.90;;
359;SDS011;168;48.872;9.226;2023-10-31T08:11:38;2.60;;;1.03;;
359;SDS011;168;48.872;9.226;2023-10-31T08:14:05;2.00;;;0.97;;
359;SDS011;168;48.872;9.226;2023-10-31T08:16:33;1.83;;;0.90;;
359;SDS011;168;48.872;9.226;2023-10-31T08:19:00;4.60;;;1.00;;
359;SDS011;168;48.872;9.226;2023-10-31T08:21:28;2.80;;;1.53;;
359;SDS011;168;48.872;9.226;2023-10-31T08:24:01;1.70;;;0.90;;
359;SDS011;168;48.872;9.226;2023-10-31T08:26:29;2.03;;;0.93;;
359;SDS011;168;48.872;9.226;2023-10-31T08:28:57;1.57;;;0.70;;
359;SDS011;168;48.872;9.226;2023-10-31T08:31:24;4.80;;;2.03;;
359;SDS011;168;48.872;9.226;2023-10-31T08:33:51;1.87;;;0.90;;
359;SDS011;168;48.872;9.226;2023-10-31T08:36:19;2.83;;;1.23;;
359;SDS011;168;48.872;9.226;2023-10-31T08:38:46;1.77;;;0.90;;
359;SDS011;168;48.872;9.226;2023-10-31T08:41:16;2.20;;;0.87;;
359;SDS011;168;48.872;9.226;2023-10-31T08:43:45;2.33;;;0.80;;
359;SDS011;168;48.872;9.226;2023-10-31T08:46:13;3.70;;;1.00;;
359;SDS011;168;48.872;9.226;2023-10-31T08:48:40;2.07;;;1.17;;
359;SDS011;168;48.872;9.226;2023-10-31T08:51:07;2.00;;;1.00;;
359;SDS011;168;48.872;9.226;2023-10-31T08:53:34;2.30;;;1.00;;
359;SDS011;168;48.872;9.226;2023-10-31T08:56:02;2.10;;;0.90;;
359;SDS011;168;48.872;9.226;2023-10-31T08:58:31;2.17;;;1.00;;
359;SDS011;168;48.872;9.226;2023-10-31T09:00:58;2.83;;;0.80;;
359;SDS011;168;48.872;9.226;2023-10-31T09:03:26;2.70;;;1.10;;
359;SDS011;168;48.872;9.226;2023-10-31T09:05:53;1.90;;;0.90;;
359;SDS011;168;48.872;9.226;2023-10-31T09:08:20;3.37;;;0.93;;
359;SDS011;168;48.872;9.226;2023-10-31T09:10:48;2.17;;;0.70;;
359;SDS011;168;48.872;9.226;2023-10-31T09:16:22;2.40;;;1.00;;
359;SDS011;168;48.872;9.226;2023-10-31T09:18:49;3.40;;;1.13;;
359;SDS011;168;48.872;9.226;2023-10-31T09:21:17;5.13;;;0.97;;
359;SDS011;168;48.872;9.226;2023-10-31T09:23:45;2.07;;;0.80;;
359;SDS011;168;48.872;9.226;2023-10-31T09:26:12;3.43;;;1.33;;
359;SDS011;168;48.872;9.226;2023-10-31T09:28:39;2.73;;;0.90;;
359;SDS011;168;48.872;9.226;2023-10-31T09:31:15;3.13;;;1.23;;
359;SDS011;168;48.872;9.226;2023-10-31T09:33:44;4.13;;;1.30;;
359;SDS011;168;48.872;9.226;2023-10-31T09:36:12;7.63;;;1.20;;
359;SDS011;168;48.872;9.226;2023-10-31T09:38:40;2.50;;;0.87;;
359;SDS011;168;48.872;9.226;2023-10-31T09:41:07;2.23;;;0.70;;
359;SDS011;168;48.872;9.226;2023-10-31T09:43:34;2.80;;;1.20;;
359;SDS011;168;48.872;9.226;2023-10-31T09:46:02;3.30;;;0.80;;
359;SDS011;168;48.872;9.226;2023-10-31T09:48:33;3.17;;;1.30;;
359;SDS011;168;48.872;9.226;2023-10-31T09:51:03;2.70;;;1.00;;
359;SDS011;168;48.872;9.226;2023-10-31T09:53:32;3.00;;;0.97;;
359;SDS011;168;48.872;9.226;2023-10-31T09:56:04;2.67;;;0.80;;
359;SDS011;168;48.872;9.226;2023-10-31T09:58:32;3.10;;;1.60;;
359;SDS011;168;48.872;9.226;2023-10-31T10:01:00;2.77;;;1.27;;
359;SDS011;168;48.872;9.226;2023-10-31T10:03:28;3.23;;;1.60;;
359;SDS011;168;48.872;9.226;2023-10-31T10:05:56;3.13;;;1.40;;
359;SDS011;168;48.872;9.226;2023-10-31T10:08:25;3.43;;;1.00;;
359;SDS011;168;48.872;9.226;2023-10-31T10:10:53;4.00;;;1.60;;
359;SDS011;168;48.872;9.226;2023-10-31T10:13:21;2.97;;;0.90;;
359;SDS011;168;48.872;9.226;2023-10-31T10:15:49;5.20;;;1.60;;
359;SDS011;168;48.872;9.226;2023-10-31T10:18:25;4.90;;;1.13;;
359;SDS011;168;48.872;9.226;2023-10-31T10:20:56;3.47;;;1.10;;
359;SDS011;168;48.872;9.226;2023-10-31T10:23:26;2.70;;;1.00;;
359;SDS011;168;48.872;9.226;2023-10-31T10:25:55;6.50;;;1.50;;
359;SDS011;168;48.872;9.226;2023-10-31T10:28:23;3.67;;;1.30;;
359;SDS011;168;48.872;9.226;2023-10-31T10:30:51;3.30;;;1.30;;
359;SDS011;168;48.872;9.226;2023-10-31T10:33:52;4.93;;;1.50;;
359;SDS011;168;48.872;9.226;2023-10-31T10:36:20;3.27;;;1.20;;
359;SDS011;168;48.872;9.226;2023-10-31T10:38:51;3.50;;;1.33;;
359;SDS011;168;48.872;9.226;2023-10-31T10:41:23;2.73;;;1.13;;
359;SDS011;168;48.872;9.226;2023-10-31T10:44:05;2.20;;;1.00;;
359;SDS011;168;48.872;9.226;2023-10-31T10:46:34;2.13;;;1.20;;
359;SDS011;168;48.872;9.226;2023-10-31T10:49:03;4.17;;;1.40;;
359;SDS011;168;48.872;9.226;2023-10-31T10:51:36;4.73;;;1.10;;
359;SDS011;168;48.872;9.226;2023-10-31T10:54:18;3.03;;;1.30;;
359;SDS011;168;48.872;9.226;2023-10-31T10:56:55;4.00;;;1.37;;
359;SDS011;168;48.872;9.226;2023-10-31T10:59:34;2.30;;;1.07;;
359;SDS011;168;48.872;9.226;2023-10-31T11:02:10;2.60;;;1.03;;
359;SDS011;168;48.872;9.226;2023-10-31T11:04:40;2.70;;;1.07;;
359;SDS011;168;48.872;9.226;2023-10-31T11:07:09;3.00;;;1.00;;
359;SDS011;168;48.872;9.226;2023-10-31T11:09:39;2.30;;;1.00;;
359;SDS011;168;48.872;9.226;2023-10-31T11:12:10;2.97;;;1.20;;
359;SDS011;168;48.872;9.226;2023-10-31T11:14:39;2.20;;;0.87;;
359;SDS011;168;48.872;9.226;2023-10-31T11:17:14;4.57;;;1.30;;
359;SDS011;168;48.872;9.226;2023-10-31T11:19:54;2.73;;;1.00;;
359;SDS011;168;48.872;9.226;2023-10-31T11:22:39;3.17;;;1.07;;
359;SDS011;168;48.872;9.226;2023-10-31T11:25:12;2.53;;;1.00;;
359;SDS011;168;48.872;9.226;2023-10-31T11:27:43;2.47;;;0.90;;
359;SDS011;168;48.872;9.226;2023-10-31T11:30:20;3.73;;;1.10;;
359;SDS011;168;48.872;9.226;2023-10-31T11:32:51;2.53;;;1.20;;
359;SDS011;168;48.872;9.226;2023-10-31T11:35:29;3.87;;;1.10;;
359;SDS011;168;48.872;9.226;2023-10-31T11:38:03;2.93;;;1.07;;
359;SDS011;168;48.872;9.226;2023-10-31T11:40:33;3.30;;;1.27;;
359;SDS011;168;48.872;9.226;2023-10-31T11:43:02;3.50;;;1.27;;
359;SDS011;168;48.872;9.226;2023-10-31T11:45:32;2.90;;;1.10;;
359;SDS011;168;48.872;9.226;2023-10-31T11:48:10;2.90;;;1.10;;
359;SDS011;168;48.872;9.226;2023-10-31T11:51:04;5.23;;;1.10;;
359;SDS011;168;48.872;9.226;2023-10-31T11:53:44;2.30;;;1.10;;
359;SDS011;168;48.872;9.226;2023-10-31T11:56:17;2.40;;;1.00;;
359;SDS011;168;48.872;9.226;2023-10-31T11:58:54;3.07;;;1.63;;
359;SDS011;168;48.872;9.226;2023-10-31T12:01:28;2.23;;;0.80;;
359;SDS011;168;48.872;9.226;2023-10-31T12:03:57;3.80;;;1.00;;
359;SDS011;168;48.872;9.226;2023-10-31T12:06:25;2.37;;;1.20;;
359;SDS011;168;48.872;9.226;2023-10-31T12:09:06;3.70;;;1.40;;
359;SDS011;168;48.872;9.226;2023-10-31T12:11:43;2.40;;;0.80;;
359;SDS011;168;48.872;9.226;2023-10-31T12:14:17;3.60;;;1.27;;
359;SDS011;168;48.872;9.226;2023-10-31T12:16:45;2.93;;;1.00;;
359;SDS011;168;48.872;9.226;2023-10-31T12:19:14;2.27;;;1.07;;
359;SDS011;168;48.872;9.226;2023-10-31T12:21:43;2.70;;;0.90;;
359;SDS011;168;48.872;9.226;2023-10-31T12:24:15;2.23;;;0.80;;
359;SDS011;168;48.872;9.226;2023-10-31T12:26:51;2.00;;;0.90;;
359;SDS011;168;48.872;9.226;2023-10-31T12:29:59;2.93;;;1.20;;
359;SDS011;168;48.872;9.226;2023-10-31T12:32:33;1.83;;;0.80;;
359;SDS011;168;48.872;9.226;2023-10-31T12:35:01;2.73;;;1.30;;
359;SDS011;168;48.872;9.226;2023-10-31T12:37:29;4.10;;;2.13;;
359;SDS011;168;48.872;9.226;2023-10-31T12:40:32;3.23;;;1.90;;
359;SDS011;168;48.872;9.226;2023-10-31T12:43:07;5.30;;;2.30;;
359;SDS011;168;48.872;9.226;2023-10-31T12:45:35;3.63;;;2.57;;
359;SDS011;168;48.872;9.226;2023-10-31T12:48:06;3.80;;;3.20;;
359;SDS011;168;48.872;9.226;2023-10-31T12:50:38;4.93;;;2.80;;
359;SDS011;168;48.872;9.226;2023-10-31T12:53:08;3.83;;;2.57;;
359;SDS011;168;48.872;9.226;2023-10-31T12:55:37;3.47;;;2.57;;
359;SDS011;168;48.872;9.226;2023-10-31T12:58:07;3.70;;;2.23;;
359;SDS011;168;48.872;9.226;2023-10-31T13:00:36;3.30;;;2.10;;
359;SDS011;168;48.872;9.226;2023-10-31T13:03:04;3.60;;;2.30;;
359;SDS011;168;48.872;9.226;2023-10-31T13:05:38;4.63;;;2.50;;
359;SDS011;168;48.872;9.226;2023-10-31T13:08:17;3.30;;;2.23;;
359;SDS011;168;48.872;9.226;2023-10-31T13:10:44;4.17;;;2.30;;
359;SDS011;168;48.872;9.226;2023-10-31T13:13:14;4.60;;;2.53;;
359;SDS011;168;48.872;9.226;2023-10-31T13:15:41;4.13;;;2.57;;
359;SDS011;168;48.872;9.226;2023-10-31T13:18:13;3.60;;;2.80;;
359;SDS011;168;48.872;9.226;2023-10-31T13:21:03;3.97;;;2.50;;
359;SDS011;168;48.872;9.226;2023-10-31T13:23:31;4.30;;;3.27;;
359;SDS011;168;48.872;9.226;2023-10-31T13:26:03;6.30;;;2.80;;
359;SDS011;168;48.872;9.226;2023-10-31T13:31:52;4.10;;;2.03;;
359;SDS011;168;48.872;9.226;2023-10-31T13:34:20;4.80;;;2.33;;
359;SDS011;168;48.872;9.226;2023-10-31T13:37:19;3.50;;;2.07;;
359;SDS011;168;48.872;9.226;2023-10-31T13:39:47;3.07;;;1.97;;
359;SDS011;168;48.872;9.226;2023-10-31T13:42:14;3.60;;;2.17;;
359;SDS011;168;48.872;9.226;2023-10-31T13:44:42;6.60;;;2.40;;
359;SDS011;168;48.872;9.226;2023-10-31T13:47:16;3.40;;;1.90;;
359;SDS011;168;48.872;9.226;2023-10-31T13:49:46;3.60;;;1.70;;
359;SDS011;168;48.872;9.226;2023-10-31T13:52:15;5.40;;;2.20;;
359;SDS011;168;48.872;9.226;2023-10-31T13:54:48;3.67;;;1.57;;
359;SDS011;168;48.872;9.226;2023-10-31T13:57:18;1.70;;;1.10;;
359;SDS011;168;48.872;9.226;2023-10-31T13:59:47;3.40;;;1.00;;
359;SDS011;168;48.872;9.226;2023-10-31T14:02:21;2.43;;;1.10;;
359;SDS011;168;48.872;9.226;2023-10-31T14:05:08;1.67;;;0.90;;
359;SDS011;168;48.872;9.226;2023-10-31T14:07:41;2.83;;;1.00;;
359;SDS011;168;48.872;9.226;2023-10-31T14:10:13;3.10;;;0.90;;
359;SDS011;168;48.872;9.226;2023-10-31T14:12:41;2.73;;;0.90;;
359;SDS011;168;48.872;9.226;2023-10-31T14:15:09;1.77;;;1.00;;
359;SDS011;168;48.872;9.226;2023-10-31T14:17:38;3.00;;;0.90;;
359;SDS011;168;48.872;9.226;2023-10-31T14:20:06;2.03;;;0.77;;
359;SDS011;168;48.872;9.226;2023-10-31T14:22:34;1.80;;;0.60;;
359;SDS011;168;48.872;9.226;2023-10-31T14:25:03;2.23;;;0.80;;
359;SDS011;168;48.872;9.226;2023-10-31T14:27:33;3.60;;;1.10;;
359;SDS011;168;48.872;9.226;2023-10-31T14:30:01;1.90;;;0.70;;
359;SDS011;168;48.872;9.226;2023-10-31T14:32:30;2.50;;;1.00;;
359;SDS011;168;48.872;9.226;2023-10-31T14:38:06;3.10;;;0.93;;
359;SDS011;168;48.872;9.226;2023-10-31T14:40:33;2.60;;;0.80;;
359;SDS011;168;48.872;9.226;2023-10-31T14:43:00;1.73;;;0.80;;
359;SDS011;168;48.872;9.226;2023-10-31T14:45:28;3.60;;;1.10;;
359;SDS011;168;48.872;9.226;2023-10-31T14:48:00;2.10;;;1.10;;
359;SDS011;168;48.872;9.226;2023-10-31T14:50:28;1.80;;;0.90;;
359;SDS011;168;48.872;9.226;2023-10-31T14:52:58;2.13;;;1.17;;
359;SDS011;168;48.872;9.226;2023-10-31T14:55:27;1.87;;;0.93;;
359;SDS011;168;48.872;9.226;2023-10-31T14:57:56;2.10;;;1.10;;
359;SDS011;168;48.872;9.226;2023-10-31T15:00:23;1.60;;;0.67;;
359;SDS011;168;48.872;9.226;2023-10-31T15:02:56;3.60;;;1.20;;
359;SDS011;168;48.872;9.226;2023-10-31T15:05:24;2.07;;;0.87;;
359;SDS011;168;48.872;9.226;2023-10-31T15:08:08;3.83;;;1.07;;
359;SDS011;168;48.872;9.226;2023-10-31T15:10:37;2.57;;;1.00;;
359;SDS011;168;48.872;9.226;2023-10-31T15:13:05;2.13;;;1.20;;
359;SDS011;168;48.872;9.226;2023-10-31T15:15:32;2.27;;;0.93;;
359;SDS011;168;48.872;9.226;2023-10-31T15:18:00;3.73;;;1.07;;
359;SDS011;168;48.872;9.226;2023-10-31T15:20:30;2.80;;;1.13;;
359;SDS011;168;48.872;9.226;2023-10-31T15:23:26;4.70;;;1.33;;
359;SDS011;168;48.872;9.226;2023-10-31T15:26:23;2.07;;;1.20;;
359;SDS011;168;48.872;9.226;2023-10-31T15:29:13;1.77;;;1.00;;
359;SDS011;168;48.872;9.226;2023-10-31T15:32:30;2.60;;;1.37;;
359;SDS011;168;48.872;9.226;2023-10-31T15:34:48;2.70;;;1.20;;
359;SDS011;168;48.872;9.226;2023-10-31T15:37:21;3.43;;;1.00;;
359;SDS011;168;48.872;9.226;2023-10-31T15:43:23;1.47;;;0.90;;
359;SDS011;168;48.872;9.226;2023-10-31T15:45:56;1.77;;;0.97;;
359;SDS011;168;48.872;9.226;2023-10-31T15:52:38;2.00;;;1.00;;
359;SDS011;168;48.872;9.226;2023-10-31T16:35:50;3.63;;;2.57;;
359;SDS011;168;48.872;9.226;2023-10-31T16:38:17;7.03;;;2.63;;
359;SDS011;168;48.872;9.226;2023-10-31T16:40:44;5.67;;;2.70;;
359;SDS011;168;48.872;9.226;2023-10-31T16:43:12;4.50;;;3.17;;
359;SDS011;168;48.872;9.226;2023-10-31T16:45:39;3.57;;;3.10;;
359;SDS011;168;48.872;9.226;2023-10-31T16:48:07;3.73;;;2.30;;
359;SDS011;168;48.872;9.226;2023-10-31T16:50:34;2.50;;;1.83;;
359;SDS011;168;48.872;9.226;2023-10-31T16:53:04;2.77;;;2.10;;
359;SDS011;168;48.872;9.226;2023-10-31T16:55:31;3.10;;;2.63;;
359;SDS011;168;48.872;9.226;2023-10-31T16:57:59;3.50;;;2.33;;
359;SDS011;168;48.872;9.226;2023-10-31T17:00:27;4.07;;;2.60;;
359;SDS011;168;48.872;9.226;2023-10-31T17:02:54;3.37;;;2.70;;
359;SDS011;168;48.872;9.226;2023-10-31T17:05:22;3.73;;;2.73;;
359;SDS011;168;48.872;9.226;2023-10-31T17:07:49;6.40;;;3.40;;
359;SDS011;168;48.872;9.226;2023-10-31T17:10:19;7.10;;;3.30;;